createdAt,value
2023-05-03T00:04:57.499Z,11.10
2023-05-03T00:10:00.828Z,11.00
2023-05-03T00:15:04.025Z,11.00
2023-05-03T00:20:08.343Z,11.10
2023-05-03T00:25:11.135Z,11.00
2023-05-03T00:30:14.129Z,11.00
2023-05-03T00:35:17.050Z,11.00
2023-05-03T00:40:19.874Z,11.00
2023-05-03T00:45:22.710Z,11.10
2023-05-03T00:50:25.454Z,11.10
2023-05-03T00:55:32.232Z,11.00
2023-05-03T01:00:35.112Z,10.90
2023-05-03T01:05:45.096Z,10.90
2023-05-03T01:11:06.297Z,10.90
2023-05-03T01:16:27.285Z,10.90
2023-05-03T01:21:31.306Z,10.90
2023-05-03T01:26:34.488Z,10.90
2023-05-03T01:31:49.210Z,10.90
2023-05-03T01:36:58.400Z,10.90
2023-05-03T01:42:02.428Z,10.90
2023-05-03T01:47:05.136Z,10.90
2023-05-03T01:52:08.073Z,10.90
2023-05-03T01:57:11.030Z,10.90
2023-05-03T02:02:13.798Z,10.90
2023-05-03T02:07:17.082Z,10.80
2023-05-03T02:12:22.054Z,10.80
2023-05-03T02:17:26.841Z,10.80
2023-05-03T02:22:29.506Z,10.70
2023-05-03T02:27:32.182Z,10.70
2023-05-03T02:32:34.964Z,10.70
2023-05-03T02:37:37.837Z,10.70
2023-05-03T02:42:45.187Z,10.70
2023-05-03T02:47:50.833Z,10.70
2023-05-03T02:52:54.607Z,10.60
2023-05-03T02:57:57.196Z,10.60
2023-05-03T03:03:00.351Z,10.60
2023-05-03T03:08:03.828Z,10.60
2023-05-03T03:13:06.960Z,10.70
2023-05-03T03:18:13.862Z,10.60
2023-05-03T03:23:16.521Z,10.70
2023-05-03T03:28:19.745Z,10.70
2023-05-03T03:33:24.629Z,10.70
2023-05-03T03:38:31.163Z,10.70
2023-05-03T03:43:38.970Z,10.70
2023-05-03T03:48:46.414Z,10.60
2023-05-03T03:53:49.177Z,10.70
2023-05-03T03:58:52.364Z,10.70
2023-05-03T04:03:55.195Z,10.70
2023-05-03T04:08:59.437Z,10.80
2023-05-03T04:14:02.987Z,10.80
2023-05-03T04:19:07.327Z,10.80
2023-05-03T04:24:16.851Z,10.90
2023-05-03T04:29:20.295Z,10.90
2023-05-03T04:34:23.789Z,10.90
2023-05-03T04:39:29.349Z,11.00
2023-05-03T04:44:32.448Z,11.00
2023-05-03T04:49:35.880Z,11.00
2023-05-03T04:54:38.748Z,11.00
2023-05-03T04:59:42.162Z,11.10
2023-05-03T05:04:45.339Z,11.00
2023-05-03T05:09:48.733Z,11.10
2023-05-03T05:14:52.342Z,11.20
2023-05-03T05:19:55.833Z,11.20
2023-05-03T05:24:58.776Z,11.20
2023-05-03T05:30:02.440Z,11.20
2023-05-03T05:35:06.926Z,11.20
2023-05-03T05:40:10.271Z,11.30
2023-05-03T05:45:19.121Z,11.20
2023-05-03T05:50:22.046Z,11.40
2023-05-03T05:55:31.205Z,11.40
2023-05-03T06:00:36.070Z,11.30
2023-05-03T06:05:39.912Z,11.40
2023-05-03T06:10:44.923Z,11.50
2023-05-03T06:15:48.278Z,11.50
2023-05-03T06:20:51.419Z,11.40
2023-05-03T06:25:55.856Z,11.50
2023-05-03T06:30:59.457Z,11.50
2023-05-03T06:36:04.182Z,11.50
2023-05-03T06:41:07.261Z,11.50
2023-05-03T06:46:11.404Z,11.50
2023-05-03T06:51:14.980Z,11.60
2023-05-03T06:56:17.760Z,11.70
2023-05-03T07:01:21.072Z,11.70
2023-05-03T07:06:24.699Z,11.70
2023-05-03T07:11:27.423Z,11.80
2023-05-03T07:16:30.419Z,11.80
2023-05-03T07:21:34.272Z,11.90
2023-05-03T07:26:37.172Z,12.00
2023-05-03T07:31:40.022Z,12.10
2023-05-03T07:36:42.869Z,12.10
2023-05-03T07:41:46.247Z,12.10
2023-05-03T07:46:49.600Z,12.10
2023-05-03T07:51:52.626Z,12.20
2023-05-03T07:56:55.809Z,12.10
2023-05-03T08:02:01.288Z,12.10
2023-05-03T08:07:05.018Z,12.30
2023-05-03T08:12:08.720Z,12.30
2023-05-03T08:17:12.220Z,12.20
2023-05-03T08:22:16.671Z,12.40
2023-05-03T08:27:19.619Z,12.50
2023-05-03T08:32:23.445Z,12.60
2023-05-03T08:37:26.352Z,12.80
2023-05-03T08:42:31.836Z,12.80
2023-05-03T08:47:37.781Z,13.00
2023-05-03T08:52:44.544Z,13.20
2023-05-03T08:57:47.345Z,13.30
2023-05-03T09:02:51.963Z,13.30
2023-05-03T09:08:05.827Z,13.50
2023-05-03T09:13:09.925Z,13.30
2023-05-03T09:18:18.148Z,13.50
2023-05-03T09:26:58.795Z,13.50
2023-05-03T09:32:06.115Z,13.20
2023-05-03T09:37:09.170Z,13.30
2023-05-03T09:42:17.392Z,13.20
2023-05-03T09:47:22.359Z,13.30
2023-05-03T09:52:28.417Z,13.40
2023-05-03T09:57:33.033Z,13.50
2023-05-03T10:02:36.382Z,13.50
2023-05-03T10:07:43.174Z,13.50
2023-05-03T10:12:46.364Z,13.20
2023-05-03T10:17:52.198Z,13.50
2023-05-03T10:23:12.151Z,13.70
2023-05-03T10:28:15.869Z,13.60
2023-05-03T10:33:18.697Z,13.60
2023-05-03T10:38:22.841Z,13.70
2023-05-03T10:43:32.039Z,13.60
2023-05-03T10:48:36.111Z,13.30
2023-05-03T10:53:41.358Z,13.30
2023-05-03T10:58:49.366Z,13.20
2023-05-03T11:04:01.205Z,13.10
2023-05-03T11:09:06.996Z,12.90
2023-05-03T11:14:11.914Z,12.80
2023-05-03T11:19:16.472Z,12.70
2023-05-03T11:24:19.364Z,12.70
2023-05-03T11:29:24.435Z,12.50
2023-05-03T11:34:27.322Z,12.50
2023-05-03T11:39:33.335Z,12.60
2023-05-03T11:44:37.987Z,12.90
2023-05-03T11:49:41.145Z,12.70
2023-05-03T11:54:44.390Z,13.00
2023-05-03T11:59:47.912Z,13.10
2023-05-03T12:04:51.400Z,13.10
2023-05-03T12:10:10.915Z,13.10
2023-05-03T12:15:30.126Z,13.10
2023-05-03T12:21:28.222Z,13.20
2023-05-03T12:25:57.317Z,13.30
2023-05-03T12:31:01.155Z,13.40
2023-05-03T12:36:04.923Z,13.30
2023-05-03T12:41:09.187Z,13.40
2023-05-03T12:46:32.982Z,13.10
2023-05-03T12:51:35.381Z,12.80
2023-05-03T12:56:40.865Z,12.80
2023-05-03T13:06:57.894Z,13.00
2023-05-03T13:12:02.736Z,12.90
2023-05-03T13:17:06.316Z,12.90
2023-05-03T13:22:09.200Z,12.70
2023-05-03T13:27:12.613Z,12.60
2023-05-03T13:32:15.767Z,12.70
2023-05-03T13:37:19.563Z,12.30
2023-05-03T13:42:22.639Z,12.30
2023-05-03T13:47:27.003Z,12.20
2023-05-03T13:52:32.295Z,12.10
2023-05-03T13:57:35.006Z,12.10
2023-05-03T14:02:37.862Z,12.20
2023-05-03T14:07:41.255Z,12.20
2023-05-03T14:12:45.326Z,12.00
2023-05-03T14:17:48.382Z,11.90
2023-05-03T14:22:51.635Z,11.90
2023-05-03T14:27:55.479Z,12.00
2023-05-03T14:32:59.008Z,11.80
2023-05-03T14:38:03.135Z,11.90
2023-05-03T14:43:08.575Z,12.00
2023-05-03T14:48:12.757Z,11.90
2023-05-03T14:53:17.628Z,12.00
2023-05-03T14:58:21.309Z,12.10
2023-05-03T15:03:25.636Z,12.10
2023-05-03T15:08:30.489Z,12.10
2023-05-03T15:13:34.539Z,12.10
2023-05-03T15:18:37.450Z,11.90
2023-05-03T15:23:40.357Z,12.00
2023-05-03T15:28:43.319Z,11.80
2023-05-03T15:33:46.240Z,11.80
2023-05-03T15:38:50.710Z,11.90
2023-05-03T15:43:53.655Z,11.90
2023-05-03T15:48:56.721Z,11.90
2023-05-03T15:53:59.893Z,12.00
2023-05-03T15:59:02.578Z,12.00
2023-05-03T16:04:08.080Z,11.80
2023-05-03T16:09:12.998Z,11.70
2023-05-03T16:14:16.395Z,11.70
2023-05-03T16:19:19.285Z,11.80
2023-05-03T16:24:22.020Z,11.90
2023-05-03T16:29:24.963Z,11.80
2023-05-03T16:34:28.110Z,11.90
2023-05-03T16:39:31.989Z,11.80
2023-05-03T16:44:34.962Z,11.80
2023-05-03T16:49:37.689Z,11.80
2023-05-03T16:54:40.576Z,11.80
2023-05-03T16:59:43.615Z,11.80
2023-05-03T17:04:46.638Z,11.70
2023-05-03T17:09:49.318Z,11.70
2023-05-03T17:14:52.293Z,11.60
2023-05-03T17:19:55.133Z,11.40
2023-05-03T17:24:58.600Z,11.50
2023-05-03T17:30:01.478Z,11.50
2023-05-03T17:35:04.869Z,11.40
2023-05-03T17:40:09.012Z,11.20
2023-05-03T17:45:12.353Z,11.20
2023-05-03T17:50:15.854Z,11.10
2023-05-03T17:55:18.836Z,11.20
2023-05-03T18:00:22.917Z,11.10
2023-05-03T18:05:26.979Z,11.20
2023-05-03T18:10:29.891Z,11.10
2023-05-03T18:15:33.128Z,11.00
2023-05-03T18:20:36.461Z,11.00
2023-05-03T18:25:39.994Z,11.00
2023-05-03T18:30:43.271Z,10.90
2023-05-03T18:35:51.147Z,10.80
2023-05-03T18:40:56.148Z,10.70
2023-05-03T18:45:59.767Z,10.70
2023-05-03T18:51:05.223Z,10.70
2023-05-03T18:56:09.209Z,10.70
2023-05-03T19:01:14.268Z,10.70
2023-05-03T19:06:18.753Z,10.70
2023-05-03T19:11:21.906Z,10.70
2023-05-03T19:16:25.648Z,10.70
2023-05-03T19:21:28.837Z,10.70
2023-05-03T19:26:31.749Z,10.70
2023-05-03T19:31:34.760Z,10.60
2023-05-03T19:36:38.453Z,10.60
2023-05-03T19:41:41.450Z,10.60
2023-05-03T19:46:44.777Z,10.60
2023-05-03T19:51:49.355Z,10.50
2023-05-03T19:56:52.308Z,10.50
2023-05-03T20:01:55.170Z,10.60
2023-05-03T20:06:58.297Z,10.50
2023-05-03T20:12:02.472Z,10.50
2023-05-03T20:17:05.182Z,10.60
2023-05-03T20:22:08.478Z,10.50
2023-05-03T20:27:11.634Z,10.50
2023-05-03T20:32:14.521Z,10.40
2023-05-03T20:37:17.530Z,10.40
2023-05-03T20:42:20.269Z,10.40
2023-05-03T20:47:23.379Z,10.40
2023-05-03T20:52:26.304Z,10.40
2023-05-03T20:57:29.072Z,10.50
2023-05-03T21:02:31.826Z,10.60
2023-05-03T21:07:34.727Z,10.60
2023-05-03T21:12:37.473Z,10.60
2023-05-03T21:17:40.372Z,10.60
2023-05-03T21:22:43.567Z,10.40
2023-05-03T21:27:46.587Z,10.40
2023-05-03T21:32:50.218Z,10.30
2023-05-03T21:37:53.442Z,10.30
2023-05-03T21:42:56.443Z,10.20
2023-05-03T21:47:59.241Z,10.20
2023-05-03T21:53:02.240Z,10.10
2023-05-03T21:58:05.322Z,10.20
2023-05-03T22:03:08.298Z,10.30
2023-05-03T22:08:14.869Z,10.20
2023-05-03T22:13:18.293Z,10.20
2023-05-03T22:18:21.205Z,10.00
2023-05-03T22:23:23.999Z,10.00
2023-05-03T22:28:27.070Z,10.00
2023-05-03T22:33:30.042Z,9.90
2023-05-03T22:38:32.753Z,9.80
2023-05-03T22:43:35.471Z,9.80
2023-05-03T22:48:38.097Z,9.70
2023-05-03T22:53:41.454Z,9.60
2023-05-03T22:58:44.246Z,9.60
2023-05-03T23:03:47.266Z,9.70
2023-05-03T23:08:50.184Z,9.60
2023-05-03T23:13:52.872Z,9.40
2023-05-03T23:18:55.797Z,9.50
2023-05-03T23:23:58.608Z,9.40
2023-05-03T23:29:01.846Z,9.40
2023-05-03T23:34:05.376Z,9.40
2023-05-03T23:39:08.181Z,9.40
2023-05-03T23:44:10.805Z,9.50
2023-05-03T23:49:13.467Z,9.50
2023-05-03T23:54:16.291Z,9.60
2023-05-03T23:59:19.044Z,9.60
